Time;durP1;ratioP1;P1;durP2;ratioP2;P2;SDS_P1;SDS_P2;PMS_P1;PMS_P2;Temp;Humidity;BMP_temperature;BMP_pressure;BME280_temperature;BME280_humidity;BME280_pressure;Samples;Min_cycle;Max_cycle;Signal;HPM_P1;HPM_P2
2022/05/04 00:02:00;;;;;;;27.08;14.15;;;;;;;14.39;77.09;101572.34;7391660;19;20078;-64
2022/05/04 00:04:27;;;;;;;26.27;13.00;;;;;;;14.38;77.01;101578.63;7389878;19;20512;-63
2022/05/04 00:06:54;;;;;;;27.60;13.73;;;;;;;14.38;77.27;101581.28;7390064;19;20547;-64
2022/05/04 00:09:22;;;;;;;31.45;14.48;;;;;;;14.40;76.88;101576.66;7389668;19;20635;-63
2022/05/04 00:11:49;;;;;;;33.13;14.07;;;;;;;14.40;77.67;101566.91;7391502;19;20107;-63
2022/05/04 00:14:17;;;;;;;28.75;14.23;;;;;;;14.38;77.49;101565.38;7388842;19;20115;-63
2022/05/04 00:16:44;;;;;;;29.10;13.95;;;;;;;14.37;76.70;101569.88;7389890;19;20059;-64
2022/05/04 00:19:11;;;;;;;31.52;14.70;;;;;;;14.39;77.59;101575.00;7391399;19;20031;-65
2022/05/04 00:21:38;;;;;;;29.75;15.27;;;;;;;14.32;76.91;101572.13;7384638;19;20027;-63
2022/05/04 00:24:06;;;;;;;28.13;14.45;;;;;;;14.32;77.19;101576.59;7391004;19;20017;-64
2022/05/04 00:26:33;;;;;;;31.83;16.00;;;;;;;14.31;77.06;101567.00;7389448;19;20007;-63
2022/05/04 00:29:01;;;;;;;35.50;16.17;;;;;;;14.32;77.52;101560.72;7392017;19;20007;-64
2022/05/04 00:31:28;;;;;;;30.10;14.18;;;;;;;14.34;77.43;101569.31;7387123;19;20034;-63
2022/05/04 00:33:55;;;;;;;35.05;15.73;;;;;;;14.34;77.12;101572.78;7388967;19;20404;-64
2022/05/04 00:36:22;;;;;;;32.63;15.15;;;;;;;14.35;77.95;101568.31;7393348;19;20014;-65
2022/05/04 00:38:49;;;;;;;32.83;16.48;;;;;;;14.37;78.56;101555.81;7387958;19;20479;-63
2022/05/04 00:41:17;;;;;;;29.88;15.30;;;;;;;14.37;77.82;101563.75;7385188;19;20014;-65
2022/05/04 00:43:51;;;;;;;33.05;15.65;;;;;;;14.36;77.01;101560.25;7385317;19;20011;-65
2022/05/04 00:46:20;;;;;;;34.33;17.10;;;;;;;14.35;77.37;101561.22;7386448;19;20057;-65
2022/05/04 00:48:50;;;;;;;34.42;17.48;;;;;;;14.32;77.69;101558.06;7386134;19;21822;-63
2022/05/04 00:51:17;;;;;;;34.80;16.75;;;;;;;14.33;77.49;101557.06;7388396;19;20010;-63
2022/05/04 00:53:44;;;;;;;33.78;16.73;;;;;;;14.34;76.94;101553.44;7388044;19;20007;-64
2022/05/04 00:56:12;;;;;;;35.53;16.25;;;;;;;14.37;77.43;101558.44;7389128;19;20014;-63
2022/05/04 01:01:17;;;;;;;33.10;16.75;;;;;;;14.37;76.17;101550.50;7386484;19;20019;-64
2022/05/04 01:03:44;;;;;;;36.40;18.70;;;;;;;14.37;75.85;101547.84;7386559;19;20006;-64
2022/05/04 01:06:12;;;;;;;36.28;18.05;;;;;;;14.34;76.11;101546.31;7388667;19;20021;-63
2022/05/04 01:08:39;;;;;;;40.17;19.15;;;;;;;14.31;75.82;101541.34;7386685;19;20011;-64
2022/05/04 01:11:06;;;;;;;39.03;19.70;;;;;;;14.30;75.71;101539.69;7384778;19;20042;-63
2022/05/04 01:13:33;;;;;;;38.20;19.70;;;;;;;14.28;75.85;101543.47;7388655;19;20034;-64
2022/05/04 01:16:00;;;;;;;43.13;20.98;;;;;;;14.25;75.21;101544.63;7385568;19;20086;-65
2022/05/04 01:18:28;;;;;;;37.72;18.63;;;;;;;14.22;74.53;101544.94;7390093;19;20471;-64
2022/05/04 01:20:55;;;;;;;39.63;19.38;;;;;;;14.21;74.72;101543.28;7384293;19;20018;-63
2022/05/04 01:23:22;;;;;;;39.97;19.48;;;;;;;14.23;74.92;101543.13;7387208;19;20575;-65
2022/05/04 01:25:53;;;;;;;41.15;19.98;;;;;;;14.25;74.98;101539.34;7385947;19;20018;-63
2022/05/04 01:28:20;;;;;;;43.50;22.38;;;;;;;14.27;74.78;101541.84;7388851;19;20048;-63
2022/05/04 01:30:47;;;;;;;40.13;20.38;;;;;;;14.28;75.99;101546.09;7389845;19;20006;-63
2022/05/04 01:33:14;;;;;;;40.67;20.60;;;;;;;14.28;74.18;101546.09;7387881;19;20015;-63
2022/05/04 01:35:41;;;;;;;41.83;20.35;;;;;;;14.26;73.91;101543.66;7387792;19;20053;-63
2022/05/04 01:38:08;;;;;;;38.95;19.40;;;;;;;14.26;75.04;101548.09;7386837;19;20007;-62
2022/05/04 01:40:35;;;;;;;42.42;21.42;;;;;;;14.25;74.32;101549.91;7384397;19;20050;-63
2022/05/04 01:43:02;;;;;;;42.10;19.05;;;;;;;14.23;74.28;101543.13;7387081;19;20674;-63
2022/05/04 01:45:29;;;;;;;40.85;19.25;;;;;;;14.24;73.98;101539.47;7387439;19;20081;-63
2022/05/04 01:47:57;;;;;;;39.25;18.63;;;;;;;14.24;73.90;101539.47;7388735;19;20019;-65
2022/05/04 01:50:24;;;;;;;42.72;20.42;;;;;;;14.24;74.31;101542.13;7384950;19;20018;-63
2022/05/04 01:52:51;;;;;;;42.65;20.35;;;;;;;14.24;73.63;101535.03;7384184;19;20051;-63
2022/05/04 01:55:18;;;;;;;42.33;20.35;;;;;;;14.24;73.69;101542.13;7390716;19;20011;-64
2022/05/04 01:57:45;;;;;;;42.55;20.50;;;;;;;14.25;74.12;101541.16;7386367;19;20103;-64
2022/05/04 02:00:13;;;;;;;44.15;21.15;;;;;;;14.24;74.44;101529.72;7387049;19;20475;-63
2022/05/04 02:02:40;;;;;;;44.95;21.58;;;;;;;14.27;74.98;101534.72;7384128;19;20043;-63
2022/05/04 02:05:08;;;;;;;45.33;21.27;;;;;;;14.27;75.59;101532.06;7385415;19;21659;-62
2022/05/04 02:07:36;;;;;;;48.38;22.52;;;;;;;14.26;75.28;101530.41;7382449;19;20002;-63
2022/05/04 02:10:04;;;;;;;46.20;21.50;;;;;;;14.28;76.00;101532.88;7386374;19;20086;-66
2022/05/04 02:12:34;;;;;;;46.50;21.40;;;;;;;14.24;76.28;101529.72;7387501;19;20079;-64
2022/05/04 02:15:03;;;;;;;47.35;22.23;;;;;;;14.23;76.50;101527.22;7385682;19;20007;-64
2022/05/04 02:17:30;;;;;;;51.58;21.80;;;;;;;14.18;77.33;101519.78;7388286;19;20046;-65
2022/05/04 02:19:57;;;;;;;48.75;22.05;;;;;;;14.20;77.53;101514.31;7383710;19;20033;-64
2022/05/04 02:22:24;;;;;;;47.70;23.08;;;;;;;14.22;78.14;101517.66;7382457;19;20019;-65
2022/05/04 02:24:52;;;;;;;51.50;22.55;;;;;;;14.18;78.48;101517.13;7387075;19;20014;-64
2022/05/04 02:27:19;;;;;;;52.65;22.48;;;;;;;14.20;78.33;101522.25;7383482;19;20022;-63
2022/05/04 02:29:46;;;;;;;48.13;22.58;;;;;;;14.19;78.80;101521.44;7384412;19;20039;-63
2022/05/04 02:32:13;;;;;;;55.03;23.52;;;;;;;14.18;79.47;101518.94;7389087;19;20350;-63
2022/05/04 02:39:53;;;;;;;53.75;23.45;;;;;;;14.16;79.79;101508.53;7385202;19;20728;-64
2022/05/04 02:42:30;;;;;;;54.88;23.55;;;;;;;14.17;79.22;101509.38;7382490;19;20033;-64
2022/05/04 02:44:58;;;;;;;53.58;23.75;;;;;;;14.18;80.34;101514.47;7384254;19;20046;-63
2022/05/04 02:47:25;;;;;;;54.50;22.80;;;;;;;14.17;79.70;101506.72;7391122;19;20086;-64
2022/05/04 02:49:52;;;;;;;50.10;22.35;;;;;;;14.14;79.88;101508.69;7386469;19;20070;-65
2022/05/04 02:52:20;;;;;;;62.80;26.15;;;;;;;14.13;80.55;101511.47;7386649;19;20007;-66
2022/05/04 02:54:46;;;;;;;50.40;22.45;;;;;;;14.13;80.47;101511.47;7384609;19;20014;-66
2022/05/04 02:57:13;;;;;;;51.63;23.13;;;;;;;14.14;81.34;101508.69;7383642;19;20021;-64
2022/05/04 02:59:40;;;;;;;50.58;22.13;;;;;;;14.16;81.42;101507.69;7385020;19;20046;-64
2022/05/04 03:04:44;;;;;;;54.88;23.02;;;;;;;14.16;80.62;101505.88;7381747;19;20026;-65
2022/05/04 03:07:11;;;;;;;53.00;22.83;;;;;;;14.18;80.79;101503.06;7388615;19;20026;-64
2022/05/04 03:09:38;;;;;;;50.45;20.80;;;;;;;14.17;80.58;101510.16;7384357;19;20226;-64
2022/05/04 03:12:06;;;;;;;51.65;21.45;;;;;;;14.18;81.09;101497.75;7383034;19;20035;-64
2022/05/04 03:14:33;;;;;;;48.42;21.20;;;;;;;14.17;81.19;101501.41;7386184;19;20020;-65
2022/05/04 03:17:00;;;;;;;45.05;20.55;;;;;;;14.17;80.74;101494.28;7386674;19;20418;-64
2022/05/04 03:19:27;;;;;;;46.72;20.17;;;;;;;14.22;81.34;101496.47;7389564;19;20011;-64
2022/05/04 03:21:54;;;;;;;52.75;21.50;;;;;;;14.22;81.02;101491.97;7391592;19;20031;-63
2022/05/04 03:24:21;;;;;;;48.28;19.88;;;;;;;14.23;80.50;101492.81;7392904;19;20357;-65
2022/05/04 03:26:48;;;;;;;50.63;21.30;;;;;;;14.21;81.13;101489.53;7391526;19;20035;-64
2022/05/04 03:29:15;;;;;;;48.80;20.63;;;;;;;14.22;80.31;101488.53;7389569;19;20117;-64
2022/05/04 03:31:42;;;;;;;52.00;22.25;;;;;;;14.18;80.34;101482.72;7390228;19;20090;-63
2022/05/04 03:34:09;;;;;;;55.25;21.40;;;;;;;14.18;80.80;101480.06;7389002;19;20436;-62
2022/05/04 03:36:37;;;;;;;49.88;22.25;;;;;;;14.14;80.49;101486.69;7388874;19;20626;-64
2022/05/04 03:39:04;;;;;;;49.33;21.13;;;;;;;14.12;80.56;101489.47;7389824;19;20102;-63
2022/05/04 03:41:32;;;;;;;50.92;20.00;;;;;;;14.07;81.15;101478.53;7391191;19;20094;-63
2022/05/04 03:43:59;;;;;;;47.53;20.58;;;;;;;14.06;80.84;101478.72;7390449;19;20045;-64
2022/05/04 03:46:28;;;;;;;47.95;20.90;;;;;;;14.05;81.87;101471.75;7389463;19;20023;-63
2022/05/04 03:48:57;;;;;;;44.30;19.17;;;;;;;14.04;81.56;101478.03;7391701;19;20098;-65
2022/05/04 03:51:24;;;;;;;44.53;19.88;;;;;;;14.04;81.07;101475.38;7392344;19;20145;-63
2022/05/04 03:53:53;;;;;;;46.90;19.42;;;;;;;14.03;81.96;101465.78;7392885;19;20127;-64
2022/05/04 03:56:20;;;;;;;45.80;21.05;;;;;;;14.02;82.28;101472.06;7391765;19;20007;-65
2022/05/04 03:58:48;;;;;;;50.65;23.77;;;;;;;13.99;81.92;101477.69;7390742;19;20504;-66
2022/05/04 04:01:15;;;;;;;47.92;20.98;;;;;;;13.98;81.95;101476.00;7387046;19;20353;-64
2022/05/04 04:03:42;;;;;;;46.92;18.58;;;;;;;14.01;81.58;101473.06;7387645;19;20114;-62
2022/05/04 04:06:11;;;;;;;44.08;20.83;;;;;;;13.99;81.18;101473.22;7388077;19;20014;-65
2022/05/04 04:08:46;;;;;;;42.35;18.63;;;;;;;14.00;81.37;101474.06;7389555;19;20006;-63
2022/05/04 04:11:14;;;;;;;41.60;18.30;;;;;;;14.00;81.51;101480.19;7386713;19;20011;-63
2022/05/04 04:13:41;;;;;;;45.50;19.40;;;;;;;13.96;82.08;101472.72;7391620;19;20460;-65
2022/05/04 04:16:08;;;;;;;46.13;21.02;;;;;;;13.99;83.13;101469.75;7388847;19;20010;-62
2022/05/04 04:18:35;;;;;;;44.13;20.77;;;;;;;14.01;83.00;101475.72;7392367;19;20021;-63
2022/05/04 04:23:41;;;;;;;46.13;20.55;;;;;;;13.99;83.42;101470.56;7391388;19;20030;-66
2022/05/04 04:26:09;;;;;;;46.08;20.23;;;;;;;13.98;82.51;101476.00;7387887;19;20018;-63
2022/05/04 04:28:38;;;;;;;44.70;19.70;;;;;;;13.96;82.48;101478.84;7389789;19;20014;-65
2022/05/04 04:31:10;;;;;;;49.03;20.45;;;;;;;13.92;82.46;101471.34;7387608;19;20014;-65
2022/05/04 04:33:39;;;;;;;55.78;24.25;;;;;;;13.90;82.21;101478.63;7387686;19;20015;-64
2022/05/04 04:36:14;;;;;;;45.25;20.73;;;;;;;13.92;82.70;101471.34;7392106;19;20515;-65
2022/05/04 04:38:41;;;;;;;45.05;18.85;;;;;;;13.91;82.68;101467.06;7388460;19;20539;-64
2022/05/04 04:41:08;;;;;;;47.15;20.20;;;;;;;13.91;82.09;101467.06;7385346;19;20014;-65
2022/05/04 04:43:35;;;;;;;42.50;19.27;;;;;;;13.94;82.44;101474.69;7387637;19;20017;-65
2022/05/04 04:46:03;;;;;;;45.47;18.75;;;;;;;13.94;81.94;101472.88;7387663;19;20671;-64
2022/05/04 04:48:33;;;;;;;42.40;19.60;;;;;;;13.94;81.78;101474.69;7388640;19;20014;-63
2022/05/04 04:51:00;;;;;;;41.08;18.27;;;;;;;13.92;81.93;101466.88;7390410;19;20683;-63
2022/05/04 04:53:28;;;;;;;44.25;18.30;;;;;;;13.92;81.60;101469.53;7391971;19;20022;-64
2022/05/04 04:55:55;;;;;;;48.72;23.17;;;;;;;13.95;82.37;101474.53;7389848;19;20014;-63
2022/05/04 04:58:22;;;;;;;42.70;19.08;;;;;;;13.94;82.72;101470.22;7386918;19;20416;-64
2022/05/04 05:00:50;;;;;;;43.38;18.88;;;;;;;13.89;81.55;101469.03;7391080;19;20014;-64
2022/05/04 05:03:17;;;;;;;44.28;19.35;;;;;;;13.89;81.72;101475.16;7384008;19;20027;-64
2022/05/04 05:05:44;;;;;;;40.90;18.38;;;;;;;13.89;82.03;101469.03;7389393;19;20018;-63
2022/05/04 05:08:12;;;;;;;40.78;18.80;;;;;;;13.82;81.56;101482.06;7386213;19;20046;-65
2022/05/04 05:10:40;;;;;;;39.38;18.88;;;;;;;13.85;81.73;101468.53;7387453;19;20032;-63
2022/05/04 05:13:08;;;;;;;47.88;19.58;;;;;;;13.86;81.55;101466.72;7385711;19;20006;-66
2022/05/04 05:18:14;;;;;;;44.13;20.02;;;;;;;13.89;82.06;101469.88;7390108;19;20330;-65
2022/05/04 05:20:41;;;;;;;42.50;19.08;;;;;;;13.91;81.94;101473.19;7388184;19;20060;-65
2022/05/04 05:23:09;;;;;;;44.17;19.27;;;;;;;13.92;81.06;101460.78;7386070;19;20010;-64
2022/05/04 05:25:36;;;;;;;41.72;18.40;;;;;;;13.94;81.66;101466.75;7385354;19;20015;-64
2022/05/04 05:28:03;;;;;;;49.42;18.90;;;;;;;13.95;81.46;101471.88;7387680;19;20006;-64
2022/05/04 05:30:30;;;;;;;49.67;22.40;;;;;;;13.99;81.37;101461.81;7385551;19;20475;-63
2022/05/04 05:32:57;;;;;;;45.72;20.60;;;;;;;14.00;81.72;101479.34;7385402;19;20468;-64
2022/05/04 05:35:24;;;;;;;45.25;19.40;;;;;;;14.00;81.21;101474.06;7388152;19;20018;-63
2022/05/04 05:37:51;;;;;;;46.40;21.23;;;;;;;14.03;82.27;101471.06;7385344;19;20151;-64
2022/05/04 05:40:18;;;;;;;43.97;20.02;;;;;;;14.05;82.00;101464.66;7386897;19;20662;-65
2022/05/04 05:42:45;;;;;;;45.53;21.25;;;;;;;14.07;81.03;101472.41;7383816;19;20011;-65
2022/05/04 05:45:12;;;;;;;49.22;24.08;;;;;;;14.11;82.32;101477.25;7386877;19;20024;-64
2022/05/04 05:47:40;;;;;;;46.75;21.02;;;;;;;14.10;81.49;101470.28;7388241;19;20013;-64
2022/05/04 05:50:08;;;;;;;46.80;21.15;;;;;;;14.09;80.60;101467.78;7386792;19;20081;-65
2022/05/04 05:52:35;;;;;;;50.50;22.23;;;;;;;14.08;81.11;101466.13;7389583;19;20010;-65
2022/05/04 05:55:03;;;;;;;48.97;22.23;;;;;;;14.06;81.18;101468.97;7384939;19;20030;-64
2022/05/04 05:57:33;;;;;;;52.17;21.70;;;;;;;14.09;81.05;101471.28;7388935;19;20036;-65
2022/05/04 06:00:01;;;;;;;47.10;21.20;;;;;;;14.11;80.71;101466.66;7384381;19;20026;-64
2022/05/04 06:02:28;;;;;;;51.65;23.25;;;;;;;14.14;81.08;101476.09;7385800;19;20007;-63
2022/05/04 06:04:56;;;;;;;47.05;21.83;;;;;;;14.16;81.46;101479.41;7384433;19;20014;-64
2022/05/04 06:07:23;;;;;;;46.60;21.05;;;;;;;14.17;80.74;101473.09;7388091;19;20201;-64
2022/05/04 06:09:51;;;;;;;54.17;24.77;;;;;;;14.20;80.73;101471.97;7387577;19;20432;-63
2022/05/04 06:12:19;;;;;;;53.28;22.02;;;;;;;14.25;80.85;101473.16;7384773;19;20041;-65
2022/05/04 06:14:46;;;;;;;48.42;21.40;;;;;;;14.28;80.19;101475.47;7384136;19;20014;-64
2022/05/04 06:17:13;;;;;;;53.60;27.77;;;;;;;14.31;80.60;101483.09;7385599;19;20019;-64
2022/05/04 06:19:41;;;;;;;50.72;21.95;;;;;;;14.39;80.01;101484.97;7383791;19;20015;-66
2022/05/04 06:22:08;;;;;;;51.10;20.73;;;;;;;14.43;79.61;101484.47;7384314;19;20041;-65
2022/05/04 06:24:35;;;;;;;46.78;20.73;;;;;;;14.48;79.13;101482.19;7388210;19;20446;-64
2022/05/04 06:27:05;;;;;;;54.05;26.38;;;;;;;14.45;79.46;101485.16;7385837;19;20099;-65
2022/05/04 06:34:46;;;;;;;46.83;22.60;;;;;;;14.46;79.32;101497.41;7384830;19;20018;-63
2022/05/04 06:37:13;;;;;;;51.65;23.23;;;;;;;14.42;79.16;101495.25;7387023;19;20884;-66
2022/05/04 06:39:40;;;;;;;52.85;23.30;;;;;;;14.36;79.67;101495.84;7384986;19;20554;-63
2022/05/04 06:42:08;;;;;;;53.08;22.67;;;;;;;14.36;80.04;101495.84;7385688;19;20400;-64
2022/05/04 06:44:37;;;;;;;55.75;24.25;;;;;;;14.39;80.26;101496.38;7382478;19;20042;-64
2022/05/04 06:47:04;;;;;;;52.80;23.63;;;;;;;14.42;80.24;101492.59;7385955;19;20011;-64
2022/05/04 06:49:34;;;;;;;49.78;22.95;;;;;;;14.46;79.81;101497.41;7382417;19;20006;-64
2022/05/04 06:52:02;;;;;;;47.58;23.27;;;;;;;14.46;79.87;101486.00;7385926;19;20025;-64
2022/05/04 06:54:29;;;;;;;54.33;24.27;;;;;;;14.45;80.20;101486.97;7385178;19;20327;-66
2022/05/04 06:56:56;;;;;;;57.70;26.77;;;;;;;14.45;80.52;101490.47;7387861;19;20419;-63
2022/05/04 06:59:23;;;;;;;50.67;22.95;;;;;;;14.46;80.52;101492.13;7383596;19;20111;-66
2022/05/04 07:01:50;;;;;;;55.00;24.48;;;;;;;14.50;80.46;101487.31;7384925;19;20381;-64
2022/05/04 07:04:18;;;;;;;52.45;24.02;;;;;;;14.52;80.21;101490.66;7388143;19;20339;-64
2022/05/04 07:06:45;;;;;;;55.80;25.10;;;;;;;14.50;80.25;101487.31;7384712;19;20022;-63
2022/05/04 07:09:15;;;;;;;58.72;23.35;;;;;;;14.50;80.37;101495.25;7385347;19;20021;-64
2022/05/04 07:11:46;;;;;;;60.63;25.70;;;;;;;14.53;80.86;101487.81;7384136;19;20015;-63
2022/05/04 07:14:16;;;;;;;61.72;25.70;;;;;;;14.60;81.05;101485.34;7386810;19;20032;-66
2022/05/04 07:16:47;;;;;;;59.22;25.90;;;;;;;14.66;80.08;101489.19;7383368;19;20011;-62
2022/05/04 07:19:17;;;;;;;58.88;26.60;;;;;;;14.71;80.19;101492.16;7383976;19;20444;-63
2022/05/04 07:21:47;;;;;;;55.28;23.50;;;;;;;14.76;80.53;101489.84;7381942;19;20330;-63
2022/05/04 07:24:14;;;;;;;53.85;25.40;;;;;;;14.80;80.30;101491.19;7385276;19;20014;-64
2022/05/04 07:26:42;;;;;;;59.42;28.65;;;;;;;14.87;81.44;101486.88;7386597;19;20018;-65
2022/05/04 07:29:09;;;;;;;62.38;25.20;;;;;;;14.96;81.28;101491.19;7381472;19;20305;-65
2022/05/04 07:31:42;;;;;;;54.42;24.02;;;;;;;15.02;79.89;101485.25;7382209;19;20006;-65
2022/05/04 07:34:10;;;;;;;55.47;24.77;;;;;;;15.06;79.61;101489.22;7381782;19;20011;-64
2022/05/04 07:36:38;;;;;;;58.25;26.67;;;;;;;15.07;79.53;101493.53;7381756;19;20018;-64
2022/05/04 07:39:05;;;;;;;58.78;25.95;;;;;;;15.12;78.94;101496.50;7383132;19;20040;-64
2022/05/04 07:44:09;;;;;;;61.92;31.17;;;;;;;15.19;78.40;101504.59;7381466;19;20006;-64
2022/05/04 07:46:35;;;;;;;60.85;25.63;;;;;;;15.21;78.10;101499.97;7385452;19;20594;-64
2022/05/04 07:49:02;;;;;;;57.67;25.35;;;;;;;15.21;78.68;101498.16;7385239;19;20011;-63
2022/05/04 07:51:29;;;;;;;54.33;23.73;;;;;;;15.22;77.78;101489.22;7383441;19;20078;-65
2022/05/04 07:53:56;;;;;;;54.15;27.40;;;;;;;15.18;77.98;101498.50;7383739;19;20011;-64
2022/05/04 07:56:23;;;;;;;59.55;25.45;;;;;;;15.21;79.67;101487.56;7380878;19;20010;-64
2022/05/04 07:58:50;;;;;;;57.67;26.10;;;;;;;15.25;79.04;101491.53;7380919;19;20023;-65
2022/05/04 08:04:18;;;;;;;58.50;25.48;;;;;;;15.34;80.41;101487.03;7380418;19;20689;-63
2022/05/04 08:06:46;;;;;;;64.17;31.17;;;;;;;15.43;83.09;101495.81;7394481;19;20467;-65
2022/05/04 08:09:16;;;;;;;61.08;30.40;;;;;;;15.50;83.22;101492.31;7387879;19;20504;-63
2022/05/04 08:11:53;;;;;;;57.63;26.83;;;;;;;15.50;80.96;101484.34;7388605;19;20048;-65
2022/05/04 08:14:20;;;;;;;56.35;26.05;;;;;;;15.51;79.14;101488.72;7390103;19;20379;-65
2022/05/04 08:16:47;;;;;;;59.88;28.23;;;;;;;15.61;79.42;101484.03;7390151;19;20537;-63
2022/05/04 08:19:16;;;;;;;54.20;25.65;;;;;;;15.70;79.18;101479.53;7388196;19;20017;-64
2022/05/04 08:21:44;;;;;;;55.50;27.17;;;;;;;15.77;78.61;101477.88;7389626;19;20031;-65
2022/05/04 08:24:11;;;;;;;59.20;27.23;;;;;;;15.83;78.05;101475.38;7389148;19;20014;-66
2022/05/04 08:26:43;;;;;;;54.70;24.42;;;;;;;15.93;76.81;101471.69;7390064;19;20079;-66
2022/05/04 08:29:23;;;;;;;50.28;23.70;;;;;;;15.97;76.22;101471.16;7388343;19;20018;-65
2022/05/04 08:31:50;;;;;;;50.22;23.42;;;;;;;15.99;75.77;101473.66;7393172;19;20479;-64
2022/05/04 08:34:17;;;;;;;51.15;23.92;;;;;;;16.00;75.89;101472.66;7390246;19;20019;-63
2022/05/04 08:36:46;;;;;;;50.92;23.77;;;;;;;16.06;75.70;101477.25;7390692;19;20014;-64
2022/05/04 08:39:14;;;;;;;48.95;22.63;;;;;;;16.11;75.23;101470.44;7388887;19;20017;-64
2022/05/04 08:41:42;;;;;;;48.03;22.48;;;;;;;16.15;74.93;101463.78;7386965;19;20070;-63
2022/05/04 08:44:11;;;;;;;44.53;21.50;;;;;;;16.16;75.20;101467.25;7386125;19;20021;-64
2022/05/04 08:46:42;;;;;;;53.20;22.80;;;;;;;16.21;75.97;101473.69;7387934;19;20010;-65
2022/05/04 08:49:12;;;;;;;51.05;21.90;;;;;;;16.29;75.34;101464.88;7388707;19;20011;-65
2022/05/04 08:51:40;;;;;;;49.33;22.40;;;;;;;16.36;74.35;101468.47;7391570;19;20013;-64
2022/05/04 08:54:08;;;;;;;43.28;21.98;;;;;;;16.42;73.67;101480.25;7387131;19;20019;-64
2022/05/04 08:56:36;;;;;;;48.92;21.08;;;;;;;16.45;74.09;101474.59;7387502;19;20475;-64
2022/05/04 08:59:04;;;;;;;42.03;20.42;;;;;;;16.53;73.88;101478.03;7387542;19;20022;-64
2022/05/04 09:01:33;;;;;;;45.35;19.95;;;;;;;16.60;73.63;101478.19;7387174;19;20011;-65
2022/05/04 09:04:00;;;;;;;43.50;18.90;;;;;;;16.65;72.89;101474.00;7385580;19;20383;-64
2022/05/04 09:06:30;;;;;;;40.25;21.63;;;;;;;16.75;73.77;101471.09;7390018;19;20479;-64
2022/05/04 09:09:10;;;;;;;38.05;18.80;;;;;;;16.83;72.83;101478.19;7388183;19;20010;-65
2022/05/04 09:11:44;;;;;;;36.55;17.83;;;;;;;16.91;72.15;101483.44;7389679;19;20427;-64
2022/05/04 09:14:20;;;;;;;36.88;17.25;;;;;;;16.95;71.02;101480.25;7383315;19;20499;-66
2022/05/04 09:16:48;;;;;;;37.97;17.30;;;;;;;17.05;70.64;101480.00;7388613;19;20014;-64
2022/05/04 09:19:17;;;;;;;36.30;16.88;;;;;;;17.12;70.43;101472.16;7385996;19;20007;-62
2022/05/04 09:21:47;;;;;;;35.63;18.10;;;;;;;17.19;70.48;101467.75;7390913;19;20416;-67
2022/05/04 09:24:16;;;;;;;36.67;17.17;;;;;;;17.25;70.25;101465.22;7387177;19;20029;-63
2022/05/04 09:26:44;;;;;;;33.42;14.68;;;;;;;17.36;68.80;101461.28;7387083;19;20011;-65
2022/05/04 09:29:13;;;;;;;31.42;15.38;;;;;;;17.39;68.46;101459.06;7386256;19;20093;-66
2022/05/04 09:31:46;;;;;;;34.00;16.63;;;;;;;17.36;69.00;101462.09;7358882;19;20047;-65
2022/05/04 09:34:14;;;;;;;30.75;15.07;;;;;;;17.40;69.21;101457.25;7388545;19;20402;-64
2022/05/04 09:47:26;;;;;;;28.83;13.90;;;;;;;17.42;67.44;101461.34;7388004;19;20024;-64
2022/05/04 09:50:03;;;;;;;28.23;13.60;;;;;;;17.37;66.63;101455.75;7389347;19;20031;-65
2022/05/04 09:52:41;;;;;;;29.17;13.35;;;;;;;17.37;67.38;101449.63;7389053;19;20028;-66
2022/05/04 09:55:19;;;;;;;28.70;13.80;;;;;;;17.38;67.51;101456.59;7388646;19;20102;-65
2022/05/04 09:57:47;;;;;;;25.85;14.02;;;;;;;17.39;68.17;101455.59;7388867;19;20030;-65
2022/05/04 10:00:19;;;;;;;22.75;12.02;;;;;;;17.43;67.34;101452.38;7388109;19;20736;-67
2022/05/04 10:02:48;;;;;;;26.30;12.15;;;;;;;17.48;67.21;101457.16;7387523;19;20015;-64
2022/05/04 10:05:20;;;;;;;25.58;11.93;;;;;;;17.48;67.38;101460.63;7386150;19;20420;-65
2022/05/04 10:07:52;;;;;;;26.17;12.70;;;;;;;17.51;67.33;101460.28;7388796;19;20043;-64
2022/05/04 10:10:25;;;;;;;30.30;12.48;;;;;;;17.54;66.93;101459.09;7388188;19;20369;-65
2022/05/04 10:12:52;;;;;;;29.52;14.60;;;;;;;17.59;67.33;101455.88;7389187;19;20069;-65
2022/05/04 10:15:20;;;;;;;26.83;12.85;;;;;;;17.61;66.82;101461.88;7388235;19;20031;-66
2022/05/04 10:17:55;;;;;;;25.38;13.05;;;;;;;17.60;66.64;101462.88;7386229;19;20010;-64
2022/05/04 10:20:31;;;;;;;24.95;12.98;;;;;;;17.63;67.36;101457.19;7388020;19;20055;-64
2022/05/04 10:23:03;;;;;;;25.83;12.50;;;;;;;17.60;65.74;101449.56;7386157;19;20018;-66
2022/05/04 10:25:33;;;;;;;29.25;13.32;;;;;;;17.64;66.59;101449.03;7389076;19;20074;-65
2022/05/04 10:28:11;;;;;;;25.45;12.35;;;;;;;17.67;66.45;101458.50;7385832;19;20022;-65
2022/05/04 10:30:51;;;;;;;29.52;13.60;;;;;;;17.73;67.04;101460.41;7387447;19;20388;-64
2022/05/04 10:33:30;;;;;;;22.27;11.52;;;;;;;17.73;66.29;101457.72;7381337;19;20018;-63
2022/05/04 10:36:15;;;;;;;24.10;12.50;;;;;;;17.70;67.49;101456.28;7387762;19;20032;-65
2022/05/04 10:38:55;;;;;;;24.92;12.73;;;;;;;17.65;67.49;101447.19;7386099;19;20039;-65
2022/05/04 10:41:34;;;;;;;23.33;11.75;;;;;;;17.56;66.02;101446.44;7386536;19;20015;-65
2022/05/04 10:44:02;;;;;;;22.17;11.35;;;;;;;17.51;66.40;101444.31;7384434;19;20452;-65
2022/05/04 10:46:41;;;;;;;22.92;11.48;;;;;;;17.50;66.46;101442.66;7386870;19;20011;-67
2022/05/04 10:49:13;;;;;;;19.85;10.63;;;;;;;17.45;65.56;101447.72;7384190;19;20084;-64
2022/05/04 10:51:42;;;;;;;25.33;10.88;;;;;;;17.45;65.58;101439.72;7387737;19;20484;-64
2022/05/04 10:54:13;;;;;;;21.77;11.18;;;;;;;17.41;65.72;101430.47;7386201;19;20095;-64
2022/05/04 10:56:43;;;;;;;23.20;12.40;;;;;;;17.48;67.13;101442.00;7385631;19;20086;-65
2022/05/04 10:59:13;;;;;;;23.33;10.35;;;;;;;17.51;66.96;101441.66;7385700;19;20449;-66
2022/05/04 11:01:40;;;;;;;18.90;9.57;;;;;;;17.59;65.69;101439.91;7386391;19;20486;-64
2022/05/04 11:04:11;;;;;;;21.33;9.60;;;;;;;17.61;64.80;101443.25;7385423;19;20038;-66
2022/05/04 11:06:39;;;;;;;20.73;10.73;;;;;;;17.58;64.43;101446.22;7386271;19;20082;-65
2022/05/04 11:09:10;;;;;;;20.48;10.02;;;;;;;17.56;64.74;101443.78;7385989;19;20018;-65
2022/05/04 11:11:39;;;;;;;18.35;9.73;;;;;;;17.58;64.62;101449.72;7383982;19;20480;-65
2022/05/04 11:14:08;;;;;;;18.35;8.90;;;;;;;17.59;64.03;101447.88;7385586;19;20358;-64
2022/05/04 11:16:37;;;;;;;14.10;7.53;;;;;;;17.58;64.49;101452.38;7384920;19;20025;-64
2022/05/04 11:19:05;;;;;;;16.67;8.93;;;;;;;17.60;64.16;101450.41;7385081;19;20643;-64
2022/05/04 11:21:34;;;;;;;17.50;9.15;;;;;;;17.57;64.02;101456.06;7387162;19;20018;-65
2022/05/04 11:24:04;;;;;;;15.73;7.38;;;;;;;17.57;64.97;101444.59;7382949;19;20026;-66
2022/05/04 11:26:42;;;;;;;20.50;6.53;;;;;;;17.55;63.00;101460.75;7385236;19;20014;-65
2022/05/04 11:29:13;;;;;;;13.05;6.30;;;;;;;17.51;62.93;101456.81;7383526;19;20018;-63
2022/05/04 11:31:47;;;;;;;12.57;6.25;;;;;;;17.45;62.54;101453.03;7385040;19;20018;-64
2022/05/04 11:34:15;;;;;;;12.63;6.32;;;;;;;17.38;63.07;101452.09;7379538;19;20029;-65
2022/05/04 11:36:46;;;;;;;13.00;7.22;;;;;;;17.33;63.75;101451.81;7384241;19;20022;-63
2022/05/04 11:39:15;;;;;;;14.55;6.95;;;;;;;17.28;64.05;101454.19;7387326;19;20018;-65
2022/05/04 11:41:44;;;;;;;17.80;7.88;;;;;;;17.24;64.55;101452.06;7391773;19;20014;-65
2022/05/04 11:44:18;;;;;;;12.90;7.47;;;;;;;17.20;64.32;101454.28;7389457;19;20023;-65
2022/05/04 11:46:47;;;;;;;14.65;6.72;;;;;;;17.11;64.47;101452.72;7393768;19;20658;-64
2022/05/04 11:49:15;;;;;;;16.73;7.05;;;;;;;17.06;65.57;101461.22;7391769;19;20332;-64
2022/05/04 11:51:42;;;;;;;15.00;7.10;;;;;;;17.06;65.98;101450.59;7391704;19;20019;-65
2022/05/04 11:54:10;;;;;;;15.57;7.50;;;;;;;17.05;65.48;101445.44;7394353;19;20019;-63